Time;durP1;ratioP1;P1;durP2;ratioP2;P2;SDS_P1;SDS_P2;PMS_P1;PMS_P2;Temp;Humidity;BMP_temperature;BMP_pressure;BME280_temperature;BME280_humidity;BME280_pressure;Samples;Min_cycle;Max_cycle;Signal;HPM_P1;HPM_P2
2023/09/03 00:01:18;;;;;;;20.70;18.60;;;;;;;15.95;100.00;99476.16;109601;1250;58129;-70
2023/09/03 00:03:49;;;;;;;18.20;16.50;;;;;;;15.90;100.00;99477.48;109602;1250;61352;-70
2023/09/03 00:06:16;;;;;;;19.20;17.10;;;;;;;15.84;100.00;99476.56;109676;1251;63738;-70
2023/09/03 00:08:42;;;;;;;19.20;17.30;;;;;;;15.77;100.00;99479.79;109571;1250;58197;-70
2023/09/03 00:11:09;;;;;;;20.70;18.70;;;;;;;15.71;100.00;99481.35;109620;1251;58136;-70
2023/09/03 00:13:35;;;;;;;22.10;20.00;;;;;;;15.68;100.00;99480.36;109612;1251;74771;-69
2023/09/03 00:16:02;;;;;;;22.20;20.00;;;;;;;15.66;100.00;99479.07;109707;1251;58137;-70
2023/09/03 00:18:29;;;;;;;22.50;20.30;;;;;;;15.65;100.00;99476.26;109658;1250;65609;-70
2023/09/03 00:21:03;;;;;;;21.80;19.50;;;;;;;15.65;100.00;99475.58;109624;1250;58178;-70
2023/09/03 00:23:31;;;;;;;22.50;20.10;;;;;;;15.63;100.00;99475.16;109609;1251;58167;-70
2023/09/03 00:25:59;;;;;;;21.30;19.20;;;;;;;15.60;100.00;99473.61;109660;1250;64966;-70
2023/09/03 00:28:26;;;;;;;22.70;19.90;;;;;;;15.54;100.00;99468.69;109623;1251;59922;-70
2023/09/03 00:31:03;;;;;;;22.50;20.40;;;;;;;15.50;100.00;99470.67;109631;1250;64542;-71
2023/09/03 00:33:30;;;;;;;22.60;20.30;;;;;;;15.46;100.00;99469.19;109643;1250;58165;-70
2023/09/03 00:35:58;;;;;;;22.20;20.10;;;;;;;15.43;100.00;99463.54;109310;1252;58242;-70
2023/09/03 00:38:25;;;;;;;20.80;18.40;;;;;;;15.40;100.00;99463.00;109579;1251;65275;-70
2023/09/03 00:40:52;;;;;;;19.10;17.00;;;;;;;15.38;100.00;99461.23;109581;1252;60317;-70
2023/09/03 00:43:18;;;;;;;18.40;16.60;;;;;;;15.34;100.00;99462.02;109590;1252;65436;-69
2023/09/03 00:45:47;;;;;;;18.70;16.70;;;;;;;15.30;100.00;99463.83;109554;1252;58512;-69
2023/09/03 00:48:18;;;;;;;18.60;16.50;;;;;;;15.22;100.00;99463.71;109579;1253;58215;-69
2023/09/03 00:50:48;;;;;;;15.80;14.40;;;;;;;15.17;100.00;99468.23;109589;1252;64016;-70
2023/09/03 00:53:16;;;;;;;20.70;17.40;;;;;;;15.12;100.00;99464.48;109597;1253;68943;-70
2023/09/03 00:55:43;;;;;;;18.30;16.20;;;;;;;15.08;100.00;99468.59;109567;1252;64144;-70
2023/09/03 00:58:11;;;;;;;18.60;16.70;;;;;;;15.04;100.00;99475.30;109590;1253;58140;-70
2023/09/03 01:00:38;;;;;;;17.50;15.90;;;;;;;15.01;100.00;99476.65;109611;1253;58318;-70
2023/09/03 01:03:05;;;;;;;21.20;19.10;;;;;;;14.98;100.00;99479.04;109557;1253;74063;-70
2023/09/03 01:05:32;;;;;;;21.90;19.40;;;;;;;14.97;100.00;99478.59;109594;1253;58982;-70
2023/09/03 01:07:59;;;;;;;18.00;16.30;;;;;;;14.95;100.00;99473.33;109581;1254;63718;-71
2023/09/03 01:10:49;;;;;;;19.70;17.80;;;;;;;14.93;100.00;99476.15;109609;1252;58217;-70
2023/09/03 01:13:26;;;;;;;18.10;16.20;;;;;;;14.91;100.00;99473.96;108967;1259;58234;-70
2023/09/03 01:15:55;;;;;;;18.30;16.60;;;;;;;14.89;100.00;99475.08;108925;1259;65135;-71
2023/09/03 01:18:24;;;;;;;17.50;15.90;;;;;;;14.85;100.00;99472.30;108968;1259;60222;-71
2023/09/03 01:21:11;;;;;;;19.90;18.00;;;;;;;14.83;100.00;99469.11;108946;1259;65214;-71
2023/09/03 01:24:05;;;;;;;18.00;16.20;;;;;;;14.81;100.00;99471.04;108968;1259;58258;-71
2023/09/03 01:26:56;;;;;;;18.40;16.50;;;;;;;14.79;100.00;99476.04;109036;1259;58325;-70
2023/09/03 01:29:24;;;;;;;16.60;15.10;;;;;;;14.75;100.00;99479.91;108863;1259;65513;-71
2023/09/03 01:31:51;;;;;;;16.90;15.40;;;;;;;14.72;100.00;99481.02;108976;1259;59861;-70
2023/09/03 01:34:19;;;;;;;14.80;13.50;;;;;;;14.69;100.00;99480.84;108960;1259;64421;-71
2023/09/03 01:36:46;;;;;;;16.30;14.70;;;;;;;14.67;100.00;99474.61;108960;1259;58360;-71
2023/09/03 01:39:16;;;;;;;15.50;13.90;;;;;;;14.66;100.00;99471.64;108973;1259;59099;-71
2023/09/03 01:41:43;;;;;;;15.10;13.50;;;;;;;14.64;100.00;99472.86;108994;1259;65198;-71
2023/09/03 01:44:09;;;;;;;16.20;14.50;;;;;;;14.62;100.00;99471.95;108959;1259;58568;-71
2023/09/03 01:46:48;;;;;;;14.10;12.70;;;;;;;14.60;100.00;99466.57;108946;1259;64464;-71
2023/09/03 01:49:30;;;;;;;14.10;12.80;;;;;;;14.57;100.00;99468.55;108929;1259;58267;-71
2023/09/03 01:52:27;;;;;;;13.60;12.40;;;;;;;14.57;100.00;99468.91;109602;1253;58250;-71
2023/09/03 01:54:58;;;;;;;13.00;11.70;;;;;;;14.57;100.00;99463.41;109590;1252;66177;-71
2023/09/03 01:57:24;;;;;;;15.30;13.70;;;;;;;14.55;100.00;99460.16;109619;1254;60115;-71
2023/09/03 01:59:53;;;;;;;13.50;12.30;;;;;;;14.54;100.00;99457.77;109550;1252;58269;-71
2023/09/03 02:02:20;;;;;;;10.60;9.60;;;;;;;14.49;100.00;99455.03;109565;1254;58284;-71
2023/09/03 02:04:47;;;;;;;10.20;9.30;;;;;;;14.39;100.00;99452.33;109621;1253;58211;-71
2023/09/03 02:07:14;;;;;;;10.50;9.50;;;;;;;14.33;100.00;99450.86;109604;1253;66082;-71
2023/09/03 02:09:40;;;;;;;14.60;13.10;;;;;;;14.31;100.00;99447.45;109587;1254;59833;-70
2023/09/03 02:12:08;;;;;;;12.90;11.70;;;;;;;14.31;100.00;99441.59;109606;1253;62832;-71
2023/09/03 02:14:35;;;;;;;14.80;13.20;;;;;;;14.31;100.00;99438.01;109524;1252;58202;-70
2023/09/03 02:17:01;;;;;;;12.90;11.50;;;;;;;14.30;100.00;99436.10;109574;1252;58234;-71
2023/09/03 02:19:28;;;;;;;14.40;12.90;;;;;;;14.29;100.00;99443.84;109552;1253;74998;-70
2023/09/03 02:21:54;;;;;;;13.90;12.50;;;;;;;14.26;100.00;99443.52;109592;1252;58921;-70
2023/09/03 02:24:21;;;;;;;16.30;14.10;;;;;;;14.23;100.00;99450.02;109358;1253;65350;-71
2023/09/03 02:26:47;;;;;;;15.90;14.40;;;;;;;14.22;100.00;99453.30;109558;1254;58552;-70
2023/09/03 02:29:14;;;;;;;18.10;16.20;;;;;;;14.22;100.00;99448.83;109566;1252;58302;-71
2023/09/03 02:31:41;;;;;;;17.50;15.80;;;;;;;14.21;100.00;99445.10;109575;1254;63996;-71
2023/09/03 02:34:09;;;;;;;19.40;17.70;;;;;;;14.22;100.00;99445.76;109631;1254;59133;-71
2023/09/03 02:36:36;;;;;;;19.30;17.50;;;;;;;14.23;100.00;99444.98;109605;1251;64086;-71
2023/09/03 02:39:05;;;;;;;17.70;15.90;;;;;;;14.24;100.00;99440.81;109594;1251;58244;-71
2023/09/03 02:41:32;;;;;;;20.50;18.50;;;;;;;14.23;100.00;99430.82;109662;1251;58204;-71
2023/09/03 02:44:01;;;;;;;27.10;24.50;;;;;;;14.26;100.00;99428.88;109301;1251;65307;-71
2023/09/03 02:46:28;;;;;;;23.10;20.90;;;;;;;14.30;100.00;99431.66;109677;1251;58876;-70
2023/09/03 02:48:54;;;;;;;22.30;20.20;;;;;;;14.30;100.00;99430.15;109631;1250;64086;-70
2023/09/03 02:51:21;;;;;;;20.90;18.60;;;;;;;14.30;100.00;99428.36;109392;1251;58231;-70
2023/09/03 02:53:51;;;;;;;27.70;25.10;;;;;;;14.29;100.00;99424.70;109676;1251;57975;-71
2023/09/03 02:56:17;;;;;;;23.00;20.70;;;;;;;14.29;100.00;99425.39;109645;1251;65050;-71
2023/09/03 02:58:47;;;;;;;23.20;21.00;;;;;;;14.30;100.00;99426.60;109319;1250;60136;-70
2023/09/03 03:01:16;;;;;;;20.10;18.00;;;;;;;14.28;100.00;99431.88;109586;1251;64198;-71
2023/09/03 03:03:44;;;;;;;19.00;17.00;;;;;;;14.26;100.00;99442.05;109457;1250;58240;-71
2023/09/03 03:06:11;;;;;;;19.90;17.10;;;;;;;14.25;100.00;99447.88;109673;1254;58261;-71
2023/09/03 03:08:38;;;;;;;18.80;16.90;;;;;;;14.26;100.00;99454.42;109691;1251;64033;-71
2023/09/03 03:11:11;;;;;;;19.70;17.70;;;;;;;14.26;100.00;99453.66;109650;1251;60292;-71
2023/09/03 03:13:39;;;;;;;18.90;17.20;;;;;;;14.28;100.00;99451.61;109625;1251;64428;-71
2023/09/03 03:16:14;;;;;;;18.80;17.10;;;;;;;14.27;100.00;99450.58;109604;1251;58669;-71
2023/09/03 03:18:42;;;;;;;28.20;19.80;;;;;;;14.26;100.00;99453.52;109343;1252;58199;-71
2023/09/03 03:21:14;;;;;;;61.90;21.90;;;;;;;14.28;100.00;99452.65;109600;1251;65214;-70
2023/09/03 03:23:41;;;;;;;41.80;23.70;;;;;;;14.33;100.00;99449.09;109705;1251;59891;-71
2023/09/03 03:26:08;;;;;;;43.60;24.40;;;;;;;14.37;100.00;99450.40;109455;1250;62824;-71
2023/09/03 03:28:35;;;;;;;30.60;23.80;;;;;;;14.41;100.00;99446.52;109614;1251;58164;-70
2023/09/03 03:31:11;;;;;;;28.80;23.50;;;;;;;14.44;100.00;99449.48;109636;1253;58051;-71
2023/09/03 03:33:39;;;;;;;27.00;23.80;;;;;;;14.47;100.00;99450.83;109632;1251;65291;-71
2023/09/03 03:36:07;;;;;;;27.80;24.50;;;;;;;14.50;100.00;99453.10;109630;1255;60106;-71
2023/09/03 03:38:34;;;;;;;24.70;21.70;;;;;;;14.53;100.00;99453.29;109594;1251;65030;-70
2023/09/03 03:41:11;;;;;;;25.10;22.60;;;;;;;14.56;100.00;99458.48;109491;1251;58213;-71
2023/09/03 03:43:40;;;;;;;26.20;23.40;;;;;;;14.58;100.00;99457.77;109640;1251;59010;-70
2023/09/03 03:46:07;;;;;;;30.60;24.30;;;;;;;14.60;100.00;99454.02;109659;1251;65306;-71
2023/09/03 03:48:34;;;;;;;27.00;24.20;;;;;;;14.63;100.00;99450.03;109661;1250;60398;-71
2023/09/03 03:51:01;;;;;;;26.50;23.60;;;;;;;14.66;100.00;99447.83;109574;1251;64069;-71
2023/09/03 03:53:28;;;;;;;25.10;22.50;;;;;;;14.68;100.00;99452.15;109590;1255;58196;-71
2023/09/03 03:56:01;;;;;;;28.00;22.70;;;;;;;14.70;100.00;99451.15;109629;1251;58201;-71
2023/09/03 03:58:30;;;;;;;23.90;20.60;;;;;;;14.70;100.00;99450.20;109610;1250;63834;-71
2023/09/03 04:00:56;;;;;;;31.60;24.10;;;;;;;14.70;100.00;99449.28;109581;1250;60122;-68
2023/09/03 04:03:24;;;;;;;66.60;27.40;;;;;;;14.73;100.00;99446.46;109659;1251;62622;-68
2023/09/03 04:06:01;;;;;;;32.10;26.40;;;;;;;14.75;100.00;99447.20;109365;1258;58241;-71
2023/09/03 04:08:31;;;;;;;32.80;24.40;;;;;;;14.76;100.00;99446.90;109612;1251;58207;-70
2023/09/03 04:11:04;;;;;;;86.70;26.30;;;;;;;14.76;100.00;99450.85;109481;1251;63986;-71
2023/09/03 04:13:31;;;;;;;90.20;27.80;;;;;;;14.76;100.00;99459.80;109508;1251;60357;-70
2023/09/03 04:15:59;;;;;;;100.80;28.30;;;;;;;14.77;100.00;99459.23;109659;1251;64087;-71
2023/09/03 04:18:27;;;;;;;99.00;30.00;;;;;;;14.78;100.00;99462.70;109656;1250;58157;-71
2023/09/03 04:20:55;;;;;;;85.40;29.30;;;;;;;14.81;100.00;99460.13;109655;1251;58075;-71
2023/09/03 04:23:23;;;;;;;104.90;29.60;;;;;;;14.86;100.00;99453.07;109680;1251;65220;-71
2023/09/03 04:25:51;;;;;;;63.20;29.80;;;;;;;14.93;100.00;99442.68;109661;1251;69996;-71
2023/09/03 04:28:18;;;;;;;55.10;30.50;;;;;;;15.01;100.00;99446.77;109668;1251;64163;-71
2023/09/03 04:30:45;;;;;;;89.40;30.80;;;;;;;15.09;100.00;99459.58;109656;1250;58163;-72
2023/09/03 04:33:12;;;;;;;75.10;33.50;;;;;;;15.15;100.00;99466.08;109628;1251;58216;-70
2023/09/03 04:35:39;;;;;;;63.20;34.30;;;;;;;15.21;100.00;99463.09;109628;1250;64041;-71
2023/09/03 04:38:06;;;;;;;81.40;31.60;;;;;;;15.27;100.00;99461.88;109689;1251;58915;-72
2023/09/03 04:40:34;;;;;;;59.90;34.40;;;;;;;15.32;100.00;99464.39;109641;1251;64007;-69
2023/09/03 04:43:04;;;;;;;59.30;37.00;;;;;;;15.37;100.00;99472.94;109663;1251;58170;-69
2023/09/03 04:45:31;;;;;;;59.30;34.10;;;;;;;15.43;100.00;99478.17;109492;1251;58656;-70
2023/09/03 04:47:58;;;;;;;66.20;45.70;;;;;;;15.49;100.00;99480.55;109486;1251;64053;-70
2023/09/03 04:50:26;;;;;;;67.90;50.90;;;;;;;15.56;100.00;99479.48;109426;1251;59436;-70
2023/09/03 04:52:55;;;;;;;72.10;52.60;;;;;;;15.62;100.00;99479.92;109684;1251;63713;-70
2023/09/03 04:55:22;;;;;;;65.60;50.20;;;;;;;15.69;100.00;99481.89;109666;1250;58175;-71
2023/09/03 04:57:49;;;;;;;64.90;50.90;;;;;;;15.73;100.00;99484.05;109684;1251;59562;-71
2023/09/03 05:00:16;;;;;;;64.40;50.50;;;;;;;15.76;100.00;99485.36;109655;1251;65383;-71
2023/09/03 05:02:42;;;;;;;53.60;44.60;;;;;;;15.79;100.00;99481.02;109643;1250;60304;-70
2023/09/03 05:05:09;;;;;;;46.10;40.70;;;;;;;15.82;100.00;99481.73;109634;1251;64843;-70
2023/09/03 05:07:36;;;;;;;37.10;31.40;;;;;;;15.84;100.00;99486.96;109649;1251;58179;-71
2023/09/03 05:10:02;;;;;;;30.90;27.80;;;;;;;15.86;100.00;99485.35;109669;1251;58195;-71
2023/09/03 05:12:29;;;;;;;29.50;26.60;;;;;;;15.90;100.00;99485.52;109667;1250;65425;-71
2023/09/03 05:14:55;;;;;;;27.30;24.60;;;;;;;15.97;100.00;99486.80;109639;1251;59045;-71
2023/09/03 05:17:22;;;;;;;26.30;23.80;;;;;;;16.03;100.00;99486.25;109260;1251;58268;-71
2023/09/03 05:19:49;;;;;;;24.80;22.50;;;;;;;16.12;100.00;99485.38;109642;1251;58144;-71
2023/09/03 05:22:15;;;;;;;26.60;24.00;;;;;;;16.20;100.00;99481.42;109646;1251;58197;-70
2023/09/03 05:24:42;;;;;;;26.90;24.30;;;;;;;16.31;100.00;99485.75;109646;1251;64019;-71
2023/09/03 05:27:09;;;;;;;28.30;25.40;;;;;;;16.41;100.00;99488.67;109625;1250;59924;-71
2023/09/03 05:29:35;;;;;;;32.20;29.00;;;;;;;16.49;100.00;99484.82;109663;1251;62816;-71
2023/09/03 05:32:02;;;;;;;41.10;37.20;;;;;;;16.56;100.00;99478.00;109649;1251;58870;-71
2023/09/03 05:34:28;;;;;;;36.90;33.50;;;;;;;16.65;100.00;99479.50;109685;1251;58178;-71
2023/09/03 05:36:55;;;;;;;38.00;34.40;;;;;;;16.77;100.00;99478.02;109459;1251;58803;-71
2023/09/03 05:39:23;;;;;;;37.60;33.90;;;;;;;16.93;100.00;99481.34;109602;1251;59498;-71
2023/09/03 05:41:49;;;;;;;35.50;32.10;;;;;;;17.07;100.00;99489.42;109538;1251;62760;-71
2023/09/03 05:44:15;;;;;;;35.60;32.30;;;;;;;17.16;100.00;99490.48;109615;1251;58167;-71
2023/09/03 05:46:43;;;;;;;35.90;32.30;;;;;;;17.22;100.00;99490.26;109587;1253;58216;-71
2023/09/03 05:49:09;;;;;;;32.90;29.60;;;;;;;17.28;100.00;99487.09;109589;1253;65313;-71
2023/09/03 05:51:36;;;;;;;31.10;28.10;;;;;;;17.29;100.00;99489.16;109478;1253;61445;-70
2023/09/03 05:54:06;;;;;;;31.80;28.60;;;;;;;17.26;100.00;99494.67;109530;1253;64076;-71
2023/09/03 05:56:34;;;;;;;32.20;29.00;;;;;;;17.19;100.00;99499.56;109550;1252;60474;-71
2023/09/03 05:59:05;;;;;;;33.00;29.80;;;;;;;17.12;100.00;99502.16;109533;1253;58363;-71
2023/09/03 06:01:32;;;;;;;37.20;33.60;;;;;;;17.04;100.00;99501.57;109606;1254;66502;-71
2023/09/03 06:04:02;;;;;;;41.30;37.30;;;;;;;17.00;100.00;99493.98;109575;1253;59185;-70
2023/09/03 06:06:29;;;;;;;36.30;32.60;;;;;;;17.01;100.00;99489.24;109569;1253;63781;-69
2023/09/03 06:08:55;;;;;;;35.00;31.70;;;;;;;17.03;100.00;99486.54;109497;1253;58413;-71
2023/09/03 06:11:22;;;;;;;34.70;31.40;;;;;;;17.06;100.00;99492.96;109574;1253;58250;-71
2023/09/03 06:13:48;;;;;;;32.90;29.80;;;;;;;17.06;100.00;99497.78;109607;1252;65218;-71
2023/09/03 06:16:15;;;;;;;31.80;28.70;;;;;;;17.05;100.00;99489.25;109555;1254;58622;-71
2023/09/03 06:18:41;;;;;;;30.60;27.50;;;;;;;17.06;100.00;99493.11;109518;1253;58228;-71
2023/09/03 06:21:08;;;;;;;30.90;28.10;;;;;;;17.09;100.00;99497.22;109594;1253;58108;-72
2023/09/03 06:23:34;;;;;;;30.00;27.10;;;;;;;17.12;100.00;99494.02;109582;1252;58150;-71
2023/09/03 06:26:01;;;;;;;28.40;25.60;;;;;;;17.12;100.00;99491.00;109559;1253;58167;-72
2023/09/03 06:28:28;;;;;;;27.80;25.10;;;;;;;17.08;100.00;99490.09;109572;1254;59844;-71
2023/09/03 06:30:59;;;;;;;28.50;25.80;;;;;;;17.08;100.00;99484.14;109603;1254;63741;-71
2023/09/03 06:33:25;;;;;;;27.40;24.70;;;;;;;17.19;100.00;99476.42;109540;1253;58224;-70
2023/09/03 06:35:52;;;;;;;28.00;25.30;;;;;;;17.34;100.00;99475.83;109591;1253;58055;-71
2023/09/03 06:38:18;;;;;;;27.50;24.90;;;;;;;17.51;100.00;99479.72;109641;1253;65356;-71
2023/09/03 06:40:45;;;;;;;27.80;25.10;;;;;;;17.65;100.00;99488.92;109280;1256;58295;-71
2023/09/03 06:43:11;;;;;;;27.80;25.20;;;;;;;17.72;100.00;99495.60;109569;1253;64050;-71
2023/09/03 06:45:38;;;;;;;29.50;26.50;;;;;;;17.75;100.00;99501.64;109592;1254;58158;-70
2023/09/03 06:48:05;;;;;;;28.10;25.20;;;;;;;17.74;100.00;99513.08;109562;1253;58115;-71
2023/09/03 06:50:32;;;;;;;27.10;24.70;;;;;;;17.70;100.00;99521.45;109407;1251;167402;-70
2023/09/03 06:52:59;;;;;;;28.00;25.50;;;;;;;17.67;100.00;99524.11;109571;1253;58888;-70
2023/09/03 06:55:25;;;;;;;27.30;24.60;;;;;;;17.67;100.00;99525.20;109539;1253;63872;-71
2023/09/03 06:57:52;;;;;;;28.10;25.60;;;;;;;17.65;100.00;99524.13;109532;1253;58132;-70
2023/09/03 07:00:18;;;;;;;28.40;25.80;;;;;;;17.65;100.00;99524.83;109550;1253;58277;-71
2023/09/03 07:02:45;;;;;;;28.20;25.60;;;;;;;17.71;100.00;99528.61;109588;1253;65223;-70
2023/09/03 07:05:11;;;;;;;28.40;25.80;;;;;;;17.81;100.00;99534.05;109551;1251;58607;-70
2023/09/03 07:07:38;;;;;;;29.50;26.70;;;;;;;17.87;100.00;99538.92;109509;1254;62497;-71
2023/09/03 07:10:05;;;;;;;29.00;26.40;;;;;;;17.92;100.00;99538.66;109571;1253;58120;-71
2023/09/03 07:12:31;;;;;;;29.10;26.50;;;;;;;17.98;100.00;99540.77;109506;1252;58198;-70
2023/09/03 07:14:58;;;;;;;29.90;27.10;;;;;;;18.04;100.00;99543.38;109547;1253;58674;-71
2023/09/03 07:17:24;;;;;;;28.80;26.10;;;;;;;18.10;100.00;99548.39;109585;1252;60189;-71
2023/09/03 07:19:57;;;;;;;29.90;27.00;;;;;;;18.14;100.00;99555.35;109534;1252;64087;-71
2023/09/03 07:22:24;;;;;;;29.40;26.60;;;;;;;18.19;100.00;99560.84;109536;1253;58160;-72
2023/09/03 07:24:52;;;;;;;29.60;26.80;;;;;;;18.32;100.00;99560.96;109585;1253;58213;-71
2023/09/03 07:27:19;;;;;;;30.50;27.60;;;;;;;18.49;100.00;99560.91;109496;1253;63981;-71
2023/09/03 07:29:45;;;;;;;28.10;25.40;;;;;;;18.63;100.00;99566.08;109513;1252;58952;-71
2023/09/03 07:32:12;;;;;;;30.10;27.30;;;;;;;18.74;100.00;99567.27;109585;1253;62840;-70
2023/09/03 07:34:38;;;;;;;30.00;27.10;;;;;;;18.87;100.00;99566.77;109546;1253;58451;-70
2023/09/03 07:37:05;;;;;;;29.70;26.70;;;;;;;18.94;100.00;99576.02;109526;1254;58074;-71
2023/09/03 07:39:32;;;;;;;30.70;28.10;;;;;;;18.98;100.00;99578.86;109527;1253;65265;-71
2023/09/03 07:41:59;;;;;;;28.70;26.00;;;;;;;19.03;100.00;99576.81;109292;1254;60116;-72
2023/09/03 07:44:25;;;;;;;28.90;26.10;;;;;;;19.15;100.00;99574.98;109567;1252;58307;-71
2023/09/03 07:46:52;;;;;;;28.00;25.20;;;;;;;19.33;100.00;99575.14;109406;1253;58224;-71
2023/09/03 07:49:18;;;;;;;28.10;25.40;;;;;;;19.58;100.00;99576.04;109537;1253;58209;-71
2023/09/03 07:51:45;;;;;;;27.70;25.00;;;;;;;19.81;100.00;99577.40;109528;1253;65041;-72
2023/09/03 07:54:15;;;;;;;27.00;24.50;;;;;;;19.96;100.00;99573.98;109609;1253;58917;-72
2023/09/03 07:56:42;;;;;;;;;;;;;;;20.00;100.00;99577.91;109624;1253;64092;-72
2023/09/03 07:59:10;;;;;;;25.00;22.50;;;;;;;20.02;100.00;99581.16;109583;1252;58435;-71
2023/09/03 08:01:37;;;;;;;24.70;21.70;;;;;;;20.08;100.00;99588.67;109594;1252;58136;-72
2023/09/03 08:04:03;;;;;;;25.20;22.90;;;;;;;20.25;100.00;99591.40;109264;1254;64911;-71
2023/09/03 08:06:30;;;;;;;23.90;21.60;;;;;;;20.41;100.00;99596.65;109456;1253;58578;-70
2023/09/03 08:08:56;;;;;;;21.70;19.80;;;;;;;20.53;100.00;99600.38;109550;1253;62791;-71
2023/09/03 08:11:23;;;;;;;23.40;21.30;;;;;;;20.76;100.00;99597.02;109544;1253;60705;-71
2023/09/03 08:13:57;;;;;;;24.40;22.20;;;;;;;20.96;100.00;99599.02;109584;1253;58227;-71
2023/09/03 08:16:24;;;;;;;22.90;20.50;;;;;;;21.14;100.00;99591.91;109465;1253;64920;-72
2023/09/03 08:18:51;;;;;;;17.80;16.30;;;;;;;21.49;100.00;99587.70;109552;1252;69834;-72
2023/09/03 08:21:17;;;;;;;18.60;17.00;;;;;;;21.66;100.00;99594.92;109310;1253;63052;-72
2023/09/03 08:23:44;;;;;;;17.90;16.40;;;;;;;21.78;100.00;99601.24;109510;1252;58513;-71
2023/09/03 08:26:10;;;;;;;15.50;14.10;;;;;;;21.73;100.00;99600.18;109568;1253;58256;-71
2023/09/03 08:28:37;;;;;;;14.20;13.00;;;;;;;21.70;100.00;99601.29;109581;1252;63684;-71
2023/09/03 08:31:03;;;;;;;13.90;12.60;;;;;;;21.59;100.00;99608.91;109553;1252;60176;-71
2023/09/03 08:33:30;;;;;;;15.60;14.20;;;;;;;21.37;100.00;99612.58;109397;1254;62577;-71
2023/09/03 08:35:59;;;;;;;15.80;14.20;;;;;;;21.19;100.00;99618.02;109534;1252;58379;-71
2023/09/03 08:38:25;;;;;;;15.80;14.20;;;;;;;21.10;100.00;99620.55;109635;1252;58082;-71
2023/09/03 08:40:52;;;;;;;15.20;13.80;;;;;;;21.00;100.00;99620.60;109477;1253;64238;-71
2023/09/03 08:43:21;;;;;;;15.20;13.70;;;;;;;20.96;100.00;99621.42;109535;1253;60167;-71
2023/09/03 08:45:53;;;;;;;13.50;12.40;;;;;;;21.03;100.00;99619.64;109561;1252;64021;-71
2023/09/03 08:48:19;;;;;;;13.30;11.90;;;;;;;21.11;100.00;99623.38;109523;1252;58165;-71
2023/09/03 08:50:46;;;;;;;12.00;11.00;;;;;;;21.07;100.00;99630.04;109552;1253;58514;-71
2023/09/03 08:53:14;;;;;;;11.70;10.80;;;;;;;21.06;100.00;99631.98;109627;1252;65198;-71
2023/09/03 08:55:41;;;;;;;11.40;10.50;;;;;;;21.17;100.00;99623.23;109615;1251;59066;-71
2023/09/03 08:58:08;;;;;;;12.00;11.00;;;;;;;21.38;100.00;99621.69;109317;1253;62880;-70
2023/09/03 09:00:37;;;;;;;11.10;10.00;;;;;;;21.61;100.00;99618.25;109579;1252;58237;-71
2023/09/03 09:03:09;;;;;;;9.60;8.80;;;;;;;21.89;100.00;99614.60;109532;1252;58172;-71
2023/09/03 09:05:36;;;;;;;9.80;8.80;;;;;;;22.13;100.00;99609.08;109505;1252;64111;-71
2023/09/03 09:08:04;;;;;;;8.40;7.60;;;;;;;22.35;100.00;99609.27;109533;1252;59061;-72
2023/09/03 09:10:34;;;;;;;8.50;7.50;;;;;;;22.34;100.00;99609.88;109513;1251;62823;-70
2023/09/03 09:13:04;;;;;;;7.70;7.10;;;;;;;22.28;100.00;99605.65;109514;1252;58236;-71
2023/09/03 09:15:30;;;;;;;7.10;6.50;;;;;;;22.41;100.00;99601.92;109171;1253;58276;-71
2023/09/03 09:17:57;;;;;;;6.90;6.40;;;;;;;22.59;100.00;99604.95;109553;1253;63818;-71
2023/09/03 09:20:24;;;;;;;6.40;5.90;;;;;;;22.87;100.00;99602.37;109505;1252;58814;-71
2023/09/03 09:22:50;;;;;;;7.00;6.40;;;;;;;23.21;100.00;99603.43;109301;1252;62905;-69
2023/09/03 09:25:22;;;;;;;7.00;6.30;;;;;;;23.40;100.00;99602.95;109545;1251;58534;-70
2023/09/03 09:27:51;;;;;;;6.60;6.10;;;;;;;23.37;100.00;99603.98;109577;1252;58172;-71
2023/09/03 09:30:19;;;;;;;7.00;6.30;;;;;;;23.34;100.00;99598.70;109605;1251;64035;-71
2023/09/03 09:32:47;;;;;;;7.60;6.80;;;;;;;23.31;100.00;99600.71;109651;1251;58640;-71
2023/09/03 09:35:24;;;;;;;7.20;6.50;;;;;;;23.17;100.00;99599.52;109293;1250;65208;-71
2023/09/03 09:37:51;;;;;;;6.50;5.90;;;;;;;23.07;100.00;99595.91;109678;1250;58897;-71
2023/09/03 09:40:29;;;;;;;6.30;5.80;;;;;;;23.08;100.00;99591.32;109671;1250;58146;-71
2023/09/03 09:42:57;;;;;;;6.60;6.00;;;;;;;23.26;100.00;99590.95;109690;1250;65055;-71
2023/09/03 09:45:24;;;;;;;6.30;5.80;;;;;;;23.42;100.00;99586.27;109684;1250;59993;-71
2023/09/03 09:48:10;;;;;;;6.30;5.80;;;;;;;23.61;100.00;99581.17;109330;1250;63786;-70
2023/09/03 09:50:39;;;;;;;6.70;6.20;;;;;;;23.73;100.00;99578.28;109638;1250;58147;-70
2023/09/03 09:53:25;;;;;;;8.60;6.70;;;;;;;23.76;100.00;99577.58;109631;1250;58373;-70
2023/09/03 09:56:02;;;;;;;30.70;9.00;;;;;;;23.54;100.00;99580.89;109709;1250;64065;-70
2023/09/03 09:58:36;;;;;;;7.00;6.50;;;;;;;23.25;100.00;99583.21;109688;1250;60583;-70
2023/09/03 10:01:03;;;;;;;7.00;6.50;;;;;;;23.03;100.00;99580.03;109666;1250;64922;-70
2023/09/03 10:03:43;;;;;;;8.00;7.30;;;;;;;23.14;100.00;99578.43;109663;1250;58417;-70
2023/09/03 10:06:13;;;;;;;7.90;7.10;;;;;;;23.42;100.00;99572.45;109660;1250;58220;-70
2023/09/03 10:08:41;;;;;;;6.80;6.20;;;;;;;23.71;100.00;99565.83;109646;1250;66198;-70
2023/09/03 10:11:07;;;;;;;7.30;6.60;;;;;;;23.98;100.00;99563.05;109663;1250;61336;-70
2023/09/03 10:13:34;;;;;;;6.90;6.30;;;;;;;24.20;100.00;99564.54;109409;1251;63975;-71
2023/09/03 10:16:04;;;;;;;7.50;6.80;;;;;;;24.16;100.00;99561.77;109612;1250;58191;-71
2023/09/03 10:18:32;;;;;;;8.00;7.30;;;;;;;23.96;100.00;99568.55;109671;1250;58190;-70
2023/09/03 10:21:00;;;;;;;7.40;6.40;;;;;;;23.77;100.00;99570.58;109690;1250;66257;-71
2023/09/03 10:23:33;;;;;;;7.80;7.00;;;;;;;23.83;100.00;99570.29;109682;1250;58982;-71
2023/09/03 10:26:03;;;;;;;7.20;6.60;;;;;;;24.05;100.00;99565.20;109606;1250;64042;-70
2023/09/03 10:28:35;;;;;;;8.40;7.50;;;;;;;24.30;100.00;99565.07;109604;1250;59138;-71
2023/09/03 10:31:02;;;;;;;7.70;7.00;;;;;;;24.57;100.00;99562.85;109634;1250;58076;-70
2023/09/03 10:33:29;;;;;;;7.30;6.60;;;;;;;24.72;100.00;99558.34;109678;1250;65229;-70
2023/09/03 10:36:14;;;;;;;6.80;6.10;;;;;;;24.89;100.00;99553.80;109659;1250;58918;-70
2023/09/03 10:38:42;;;;;;;6.60;6.10;;;;;;;24.64;100.00;99554.44;109674;1250;62834;-70
2023/09/03 10:41:23;;;;;;;7.20;6.70;;;;;;;24.16;100.00;99559.92;109394;1251;58212;-70
2023/09/03 10:43:54;;;;;;;7.90;7.20;;;;;;;23.77;100.00;99561.29;109685;1250;58188;-71
2023/09/03 10:46:22;;;;;;;8.30;7.60;;;;;;;23.46;100.00;99566.06;109637;1250;65044;-71
2023/09/03 10:48:56;;;;;;;8.40;7.60;;;;;;;23.32;100.00;99559.58;109665;1251;59858;-72
2023/09/03 10:51:35;;;;;;;8.70;7.50;;;;;;;23.53;100.00;99554.92;109698;1250;64092;-72
2023/09/03 10:54:21;;;;;;;8.70;8.00;;;;;;;23.57;100.00;99553.39;109661;1250;58579;-71
2023/09/03 10:57:13;;;;;;;8.60;8.00;;;;;;;23.36;100.00;99561.71;109686;1250;58511;-71
2023/09/03 10:59:57;;;;;;;10.60;9.60;;;;;;;22.93;100.00;99558.25;108977;1259;64080;-70
2023/09/03 11:02:26;;;;;;;10.90;10.00;;;;;;;22.35;100.00;99560.69;108954;1259;60339;-69
2023/09/03 11:05:22;;;;;;;11.10;10.30;;;;;;;21.91;100.00;99566.31;108919;1259;64170;-70
2023/09/03 11:08:22;;;;;;;9.30;8.60;;;;;;;21.67;100.00;99566.88;108941;1259;58243;-70
2023/09/03 11:10:49;;;;;;;10.70;9.80;;;;;;;21.40;100.00;99565.02;108400;1267;58279;-70
2023/09/03 11:13:15;;;;;;;10.30;9.60;;;;;;;21.27;100.00;99559.02;108553;1267;65266;-71